createdAt,value
2022-10-05T00:01:29.139Z,86.00
2022-10-05T00:04:04.112Z,86.00
2022-10-05T00:06:32.337Z,86.10
2022-10-05T00:09:02.203Z,86.10
2022-10-05T00:11:30.496Z,86.20
2022-10-05T00:13:59.845Z,86.20
2022-10-05T00:16:30.975Z,86.30
2022-10-05T00:19:01.276Z,86.30
2022-10-05T00:21:30.931Z,86.30
2022-10-05T00:23:59.811Z,86.30
2022-10-05T00:26:34.093Z,86.30
2022-10-05T00:29:06.141Z,86.20
2022-10-05T00:31:37.525Z,86.30
2022-10-05T00:34:05.871Z,86.40
2022-10-05T00:36:34.043Z,86.50
2022-10-05T00:39:03.364Z,86.50
2022-10-05T00:41:47.963Z,86.60
2022-10-05T00:44:33.650Z,86.70
2022-10-05T00:47:29.849Z,86.80
2022-10-05T00:50:26.594Z,86.80
2022-10-05T00:53:04.346Z,86.90
2022-10-05T00:55:47.152Z,87.00
2022-10-05T00:58:26.194Z,87.00
2022-10-05T01:01:07.773Z,86.90
2022-10-05T01:03:52.779Z,86.80
2022-10-05T01:06:31.166Z,86.80
2022-10-05T01:09:10.109Z,86.90
2022-10-05T01:11:44.935Z,86.90
2022-10-05T01:14:21.974Z,86.80
2022-10-05T01:16:55.623Z,86.80
2022-10-05T01:20:01.878Z,86.80
2022-10-05T01:22:46.980Z,86.80
2022-10-05T01:25:26.077Z,86.80
2022-10-05T01:28:04.358Z,86.80
2022-10-05T01:30:39.189Z,86.80
2022-10-05T01:33:17.943Z,86.90
2022-10-05T01:35:58.423Z,86.90
2022-10-05T01:38:39.970Z,87.00
2022-10-05T01:41:21.445Z,87.00
2022-10-05T01:43:55.060Z,87.00
2022-10-05T01:46:30.185Z,87.10
2022-10-05T01:49:17.915Z,87.20
2022-10-05T01:51:58.046Z,87.10
2022-10-05T01:54:41.288Z,87.20
2022-10-05T01:57:24.564Z,87.30
2022-10-05T02:00:07.913Z,87.30
2022-10-05T02:02:40.899Z,87.40
2022-10-05T02:05:16.183Z,87.40
2022-10-05T02:07:50.814Z,87.40
2022-10-05T02:10:26.256Z,87.40
2022-10-05T02:13:01.080Z,87.50
2022-10-05T02:15:38.608Z,87.50
2022-10-05T02:18:15.916Z,87.50
2022-10-05T02:20:46.818Z,87.50
2022-10-05T02:23:26.696Z,87.50
2022-10-05T02:25:57.296Z,87.40
2022-10-05T02:28:31.969Z,87.50
2022-10-05T02:31:08.291Z,87.50
2022-10-05T02:33:37.540Z,87.50
2022-10-05T02:36:16.038Z,87.50
2022-10-05T02:39:06.685Z,87.40
2022-10-05T02:41:48.629Z,87.40
2022-10-05T02:44:27.881Z,87.40
2022-10-05T02:47:04.441Z,87.30
2022-10-05T02:49:41.667Z,87.30
2022-10-05T02:52:17.361Z,87.30
2022-10-05T02:54:55.603Z,87.30
2022-10-05T02:57:30.217Z,87.30
2022-10-05T03:00:07.223Z,87.30
2022-10-05T03:02:45.494Z,87.30
2022-10-05T03:05:22.303Z,87.40
2022-10-05T03:08:00.296Z,87.40
2022-10-05T03:10:36.075Z,87.50
2022-10-05T03:13:10.481Z,87.40
2022-10-05T03:15:57.532Z,87.50
2022-10-05T03:18:43.316Z,87.50
2022-10-05T03:21:26.494Z,87.60
2022-10-05T03:24:11.342Z,87.60
2022-10-05T03:26:49.550Z,87.60
2022-10-05T03:29:30.693Z,87.70
2022-10-05T03:32:07.028Z,87.60
2022-10-05T03:34:43.281Z,87.70
2022-10-05T03:37:18.621Z,87.70
2022-10-05T03:39:53.784Z,87.70
2022-10-05T03:42:34.496Z,87.80
2022-10-05T03:45:09.920Z,87.80
2022-10-05T03:47:47.802Z,87.80
2022-10-05T03:50:42.348Z,87.80
2022-10-05T03:53:17.757Z,87.70
2022-10-05T03:55:51.836Z,87.80
2022-10-05T03:58:25.630Z,87.80
2022-10-05T04:01:00.329Z,87.80
2022-10-05T04:03:35.469Z,87.80
2022-10-05T04:06:14.417Z,87.80
2022-10-05T04:08:53.287Z,87.80
2022-10-05T04:11:27.850Z,87.80
2022-10-05T04:14:03.689Z,87.80
2022-10-05T04:16:37.630Z,87.70
2022-10-05T04:19:14.568Z,87.70
2022-10-05T04:21:52.343Z,87.70
2022-10-05T04:24:28.420Z,87.70
2022-10-05T04:27:02.475Z,87.70
2022-10-05T04:29:37.872Z,87.60
2022-10-05T04:32:25.608Z,87.70
2022-10-05T04:35:27.108Z,87.60
2022-10-05T04:38:11.344Z,87.60
2022-10-05T04:40:55.692Z,87.60
2022-10-05T04:43:37.282Z,87.50
2022-10-05T04:46:21.011Z,87.40
2022-10-05T04:49:20.051Z,87.50
2022-10-05T04:51:56.597Z,87.50
2022-10-05T04:54:41.609Z,87.50
2022-10-05T04:57:18.450Z,87.40
2022-10-05T05:00:19.365Z,87.40
2022-10-05T05:03:16.396Z,87.40
2022-10-05T05:06:16.875Z,87.30
2022-10-05T05:09:42.984Z,87.20
2022-10-05T05:12:25.824Z,87.00
2022-10-05T05:15:18.570Z,87.00
2022-10-05T05:18:08.189Z,87.00
2022-10-05T05:20:55.095Z,86.80
2022-10-05T05:23:35.703Z,86.70
2022-10-05T05:26:16.328Z,86.70
2022-10-05T05:28:50.904Z,86.80
2022-10-05T05:31:30.050Z,86.60
2022-10-05T05:34:07.293Z,86.60
2022-10-05T05:36:52.030Z,86.60
2022-10-05T05:39:30.518Z,86.60
2022-10-05T05:42:17.060Z,86.60
2022-10-05T05:44:51.095Z,86.40
2022-10-05T05:47:24.428Z,86.20
2022-10-05T05:50:19.681Z,86.30
2022-10-05T05:52:54.312Z,86.20
2022-10-05T05:55:30.069Z,86.20
2022-10-05T05:58:05.894Z,86.20
2022-10-05T06:00:39.331Z,86.00
2022-10-05T06:03:22.430Z,86.00
2022-10-05T06:05:55.078Z,86.00
2022-10-05T06:08:33.902Z,85.80
2022-10-05T06:11:11.353Z,85.70
2022-10-05T06:13:43.404Z,85.80
2022-10-05T06:16:20.687Z,85.70
2022-10-05T06:18:55.139Z,85.50
2022-10-05T06:21:29.801Z,85.50
2022-10-05T06:24:05.489Z,85.40
2022-10-05T06:27:04.587Z,85.20
2022-10-05T06:29:50.773Z,85.20
2022-10-05T06:32:27.970Z,85.10
2022-10-05T06:35:08.277Z,85.00
2022-10-05T06:38:04.640Z,84.90
2022-10-05T06:40:55.437Z,84.90
2022-10-05T06:43:41.026Z,84.70
2022-10-05T06:46:20.312Z,84.80
2022-10-05T06:49:09.145Z,84.40
2022-10-05T06:51:45.453Z,84.30
2022-10-05T06:54:29.587Z,84.50
2022-10-05T06:57:04.461Z,84.20
2022-10-05T06:59:42.551Z,84.10
2022-10-05T07:02:23.692Z,83.90
2022-10-05T07:05:30.831Z,84.10
2022-10-05T07:08:01.979Z,84.00
2022-10-05T07:10:34.313Z,83.80
2022-10-05T07:13:28.685Z,83.80
2022-10-05T07:16:10.333Z,83.70
2022-10-05T07:18:57.068Z,83.70
2022-10-05T07:21:39.393Z,83.70
2022-10-05T07:24:29.243Z,83.70
2022-10-05T07:27:11.590Z,83.70
2022-10-05T07:29:49.169Z,83.70
2022-10-05T07:32:32.388Z,83.40
2022-10-05T07:35:31.988Z,83.50
2022-10-05T07:38:05.632Z,83.50
2022-10-05T07:40:41.503Z,83.40
2022-10-05T07:43:23.423Z,83.00
2022-10-05T07:45:58.994Z,83.10
2022-10-05T07:48:33.259Z,83.20
2022-10-05T07:51:07.838Z,83.40
2022-10-05T07:53:40.558Z,83.10
2022-10-05T07:56:17.123Z,82.80
2022-10-05T07:58:49.732Z,82.70
2022-10-05T08:01:27.262Z,82.70
2022-10-05T08:04:00.150Z,82.80
2022-10-05T08:06:50.049Z,82.70
2022-10-05T08:09:34.425Z,82.30
2022-10-05T08:12:29.324Z,82.00
2022-10-05T08:14:59.677Z,82.10
2022-10-05T08:17:40.716Z,81.80
2022-10-05T08:20:24.531Z,82.10
2022-10-05T08:23:00.520Z,82.40
2022-10-05T08:25:42.437Z,82.20
2022-10-05T08:28:19.627Z,81.90
2022-10-05T08:30:58.935Z,81.70
2022-10-05T08:33:32.604Z,81.80
2022-10-05T08:36:08.703Z,81.60
2022-10-05T08:38:38.961Z,81.50
2022-10-05T08:42:07.412Z,81.50
2022-10-05T08:45:44.989Z,80.90
2022-10-05T08:48:36.267Z,80.90
2022-10-05T08:51:19.352Z,80.90
2022-10-05T08:54:15.019Z,81.00
2022-10-05T08:56:51.578Z,80.70
2022-10-05T09:00:15.703Z,80.30
2022-10-05T09:03:17.013Z,80.10
2022-10-05T09:06:14.950Z,80.00
2022-10-05T09:09:27.108Z,79.60
2022-10-05T09:12:16.083Z,79.70
2022-10-05T09:15:24.289Z,79.50
2022-10-05T09:18:31.318Z,78.90
2022-10-05T09:21:07.282Z,79.30
2022-10-05T09:23:42.895Z,79.00
2022-10-05T09:26:45.630Z,78.60
2022-10-05T09:29:57.014Z,78.50
2022-10-05T09:33:09.693Z,78.70
2022-10-05T09:36:34.101Z,77.70
2022-10-05T09:39:40.684Z,78.10
2022-10-05T09:42:37.492Z,77.60
2022-10-05T09:45:50.686Z,77.70
2022-10-05T09:48:58.169Z,77.40
2022-10-05T09:52:13.069Z,77.00
2022-10-05T09:56:02.955Z,77.00
2022-10-05T09:59:33.103Z,76.70
2022-10-05T10:02:24.600Z,77.00
2022-10-05T10:05:23.865Z,76.20
2022-10-05T10:08:10.315Z,75.90
2022-10-05T10:11:04.684Z,76.10
2022-10-05T10:14:01.783Z,75.90
2022-10-05T10:17:02.787Z,75.90
2022-10-05T10:20:10.396Z,75.90
2022-10-05T10:23:20.561Z,75.90
2022-10-05T10:26:49.450Z,75.80
2022-10-05T10:29:47.769Z,75.20
2022-10-05T10:33:11.893Z,75.20
2022-10-05T10:35:42.274Z,75.70
2022-10-05T10:38:35.388Z,75.30
2022-10-05T10:41:44.292Z,75.00
2022-10-05T10:44:53.812Z,74.30
2022-10-05T10:47:54.582Z,74.50
2022-10-05T10:51:05.464Z,74.50
2022-10-05T10:54:15.773Z,74.30
2022-10-05T10:57:04.437Z,74.40
2022-10-05T11:00:22.640Z,74.20
2022-10-05T11:03:34.966Z,73.80
2022-10-05T11:06:29.414Z,73.20
2022-10-05T11:09:46.456Z,73.00
2022-10-05T11:12:55.531Z,72.90
2022-10-05T11:15:47.129Z,73.10
2022-10-05T11:18:21.751Z,72.00
2022-10-05T11:21:24.087Z,71.50
2022-10-05T11:24:38.921Z,71.40
2022-10-05T11:27:47.611Z,71.30
2022-10-05T11:30:58.988Z,71.50
2022-10-05T11:34:42.869Z,70.80
2022-10-05T11:37:50.329Z,68.50
2022-10-05T11:41:22.459Z,69.50
2022-10-05T11:44:22.409Z,67.90
2022-10-05T11:47:01.584Z,69.00
2022-10-05T11:49:40.929Z,67.90
2022-10-05T11:52:16.852Z,68.00
2022-10-05T11:55:25.362Z,67.30
2022-10-05T11:57:57.650Z,67.10
2022-10-05T12:00:32.918Z,65.00
2022-10-05T12:03:25.452Z,66.30
2022-10-05T12:06:23.425Z,66.30
2022-10-05T12:09:06.394Z,64.70
2022-10-05T12:11:57.620Z,65.10
2022-10-05T12:14:39.366Z,66.00
2022-10-05T12:17:18.242Z,66.50
2022-10-05T12:19:54.565Z,65.20
2022-10-05T12:22:29.417Z,65.20
2022-10-05T12:25:17.251Z,65.90
2022-10-05T12:27:50.963Z,64.60
2022-10-05T12:30:27.531Z,64.90
2022-10-05T12:33:06.708Z,65.00
2022-10-05T12:35:50.227Z,65.50
2022-10-05T12:38:28.413Z,65.90
2022-10-05T12:41:07.730Z,65.10
2022-10-05T12:43:53.783Z,64.90
2022-10-05T12:46:32.853Z,64.30
2022-10-05T12:49:40.681Z,63.90
2022-10-05T12:52:30.728Z,65.10
2022-10-05T12:55:08.074Z,64.30
2022-10-05T12:57:46.996Z,65.10
2022-10-05T13:00:22.987Z,65.10
2022-10-05T13:02:58.997Z,63.40
2022-10-05T13:05:33.787Z,64.80
2022-10-05T13:11:37.265Z,64.50
2022-10-05T13:14:19.350Z,64.40
2022-10-05T13:16:59.422Z,65.20
2022-10-05T13:19:40.790Z,65.80
2022-10-05T13:22:28.783Z,65.20
2022-10-05T13:25:17.375Z,65.30
2022-10-05T13:28:04.920Z,65.10
2022-10-05T13:30:33.603Z,64.40
2022-10-05T13:33:14.484Z,64.90
2022-10-05T13:35:46.228Z,64.30
2022-10-05T13:38:29.063Z,64.90
2022-10-05T13:41:06.696Z,64.70
2022-10-05T13:43:45.632Z,64.60
2022-10-05T13:46:23.378Z,65.20
2022-10-05T13:49:09.560Z,65.60
2022-10-05T13:51:45.824Z,66.10
2022-10-05T13:54:21.099Z,65.50
2022-10-05T13:56:57.885Z,65.00
2022-10-05T13:59:33.254Z,66.20
2022-10-05T14:02:07.289Z,64.60
2022-10-05T14:04:48.218Z,66.10
2022-10-05T14:07:24.921Z,65.50
2022-10-05T14:09:53.363Z,65.50
2022-10-05T14:12:24.111Z,65.00
2022-10-05T14:14:53.767Z,65.50
2022-10-05T14:17:40.475Z,65.00
2022-10-05T14:20:24.476Z,65.80
2022-10-05T14:22:58.820Z,66.40
2022-10-05T14:25:27.455Z,66.80
2022-10-05T14:28:25.535Z,66.40
2022-10-05T14:30:59.867Z,66.90
2022-10-05T14:33:32.267Z,65.80
2022-10-05T14:36:02.521Z,65.80
2022-10-05T14:38:52.222Z,66.10
2022-10-05T14:41:22.330Z,66.00
2022-10-05T14:43:53.254Z,65.50
2022-10-05T14:46:28.126Z,64.20
2022-10-05T14:49:22.564Z,63.40
2022-10-05T14:51:53.768Z,64.60
2022-10-05T14:54:42.415Z,64.50
2022-10-05T14:57:23.264Z,64.70
2022-10-05T15:00:09.003Z,65.40
2022-10-05T15:03:08.866Z,65.80
2022-10-05T15:05:41.149Z,66.70
2022-10-05T15:08:24.717Z,66.70
2022-10-05T15:10:58.124Z,67.30
2022-10-05T15:13:32.493Z,67.80
2022-10-05T15:16:06.657Z,68.30
2022-10-05T15:18:44.376Z,67.20
2022-10-05T15:21:42.404Z,67.00
2022-10-05T15:24:17.650Z,66.60
2022-10-05T15:26:51.595Z,66.40
2022-10-05T15:29:52.333Z,66.70
2022-10-05T15:32:31.455Z,67.20
2022-10-05T15:35:40.637Z,67.90
2022-10-05T15:38:25.828Z,68.00
2022-10-05T15:41:12.492Z,67.60
2022-10-05T15:43:50.993Z,67.80
2022-10-05T15:46:25.795Z,68.30
2022-10-05T15:49:08.375Z,68.30
2022-10-05T15:51:53.310Z,69.00
2022-10-05T15:54:42.427Z,69.00
2022-10-05T15:57:22.751Z,68.80
2022-10-05T16:00:01.503Z,68.90
2022-10-05T16:02:41.151Z,68.20
2022-10-05T16:05:44.138Z,68.30
2022-10-05T16:08:54.194Z,68.50
2022-10-05T16:11:46.734Z,68.50
2022-10-05T16:14:35.871Z,67.70
2022-10-05T16:17:21.400Z,67.50
2022-10-05T16:20:15.029Z,67.40
2022-10-05T16:22:50.621Z,67.50
2022-10-05T16:25:26.029Z,66.80
2022-10-05T16:28:07.334Z,67.80
2022-10-05T16:30:51.264Z,67.50
2022-10-05T16:33:31.740Z,67.60
2022-10-05T16:36:11.760Z,67.70
2022-10-05T16:38:50.708Z,68.10
2022-10-05T16:41:29.288Z,67.90
2022-10-05T16:44:09.022Z,68.20
2022-10-05T16:46:46.955Z,67.90
2022-10-05T16:49:26.965Z,67.80
2022-10-05T16:52:00.280Z,68.00
2022-10-05T16:54:33.300Z,68.20
2022-10-05T16:57:10.908Z,68.60
2022-10-05T17:00:08.877Z,68.50
2022-10-05T17:03:02.918Z,68.60
2022-10-05T17:05:55.880Z,69.10
2022-10-05T17:09:09.235Z,69.90
2022-10-05T17:11:54.822Z,69.80
2022-10-05T17:14:39.803Z,69.60
2022-10-05T17:17:34.424Z,69.80
2022-10-05T17:20:40.210Z,70.40
2022-10-05T17:23:30.517Z,70.20
2022-10-05T17:26:09.432Z,70.50
2022-10-05T17:28:42.444Z,70.60
2022-10-05T17:31:18.684Z,70.60
2022-10-05T17:34:24.842Z,70.90
2022-10-05T17:37:01.707Z,71.00
2022-10-05T17:39:51.821Z,71.40
2022-10-05T17:42:49.574Z,71.80
2022-10-05T17:45:55.015Z,72.50
2022-10-05T17:49:07.824Z,72.20
2022-10-05T17:52:22.616Z,72.50
2022-10-05T17:55:28.121Z,72.30
2022-10-05T17:58:01.477Z,71.90
2022-10-05T18:01:04.327Z,72.40
2022-10-05T18:03:44.153Z,72.40
2022-10-05T18:06:47.640Z,72.30
2022-10-05T18:10:01.917Z,72.20
2022-10-05T18:12:45.814Z,71.80
2022-10-05T18:15:45.244Z,71.80
2022-10-05T18:18:57.260Z,72.10
2022-10-05T18:22:03.390Z,72.10
2022-10-05T18:25:04.018Z,72.00
2022-10-05T18:28:08.388Z,71.40
2022-10-05T18:30:47.481Z,71.60
2022-10-05T18:33:54.768Z,71.10
2022-10-05T18:36:51.534Z,70.80
2022-10-05T18:39:46.100Z,71.00
2022-10-05T18:42:27.403Z,71.00
2022-10-05T18:45:01.736Z,70.70
2022-10-05T18:47:39.062Z,70.70
2022-10-05T18:50:24.524Z,70.70
2022-10-05T18:53:04.603Z,70.50
2022-10-05T18:55:40.324Z,70.80
2022-10-05T18:58:23.027Z,71.30
2022-10-05T19:01:14.814Z,71.10
2022-10-05T19:03:58.289Z,70.80
2022-10-05T19:06:31.030Z,70.80
2022-10-05T19:09:13.327Z,71.00
2022-10-05T19:11:51.942Z,70.90
2022-10-05T19:14:34.256Z,71.00
2022-10-05T19:17:23.249Z,71.20
2022-10-05T19:20:17.364Z,71.30
2022-10-05T19:23:09.721Z,71.10
2022-10-05T19:25:41.294Z,71.40
2022-10-05T19:28:23.280Z,71.50
2022-10-05T19:31:19.567Z,71.70
2022-10-05T19:34:21.828Z,71.70
2022-10-05T19:37:00.344Z,71.70
2022-10-05T19:39:39.760Z,71.90
2022-10-05T19:42:30.182Z,72.10
2022-10-05T19:45:12.139Z,72.10
2022-10-05T19:47:56.536Z,72.40
2022-10-05T19:50:30.288Z,72.60
2022-10-05T19:53:08.170Z,72.70
2022-10-05T19:55:41.678Z,72.60
2022-10-05T19:58:25.600Z,72.90
2022-10-05T20:01:00.294Z,73.30
2022-10-05T20:03:32.430Z,73.20
2022-10-05T20:06:03.178Z,73.50
2022-10-05T20:08:40.677Z,73.50
2022-10-05T20:11:13.280Z,73.70
2022-10-05T20:13:43.677Z,73.80
2022-10-05T20:16:39.713Z,73.80
2022-10-05T20:19:55.126Z,74.00
2022-10-05T20:22:30.301Z,74.10
2022-10-05T20:25:01.292Z,74.20
2022-10-05T20:27:43.567Z,74.30
2022-10-05T20:30:14.244Z,74.40
2022-10-05T20:32:43.652Z,74.30
2022-10-05T20:35:15.790Z,74.60
2022-10-05T20:37:44.119Z,74.50
2022-10-05T20:40:12.591Z,74.90
2022-10-05T20:42:40.843Z,74.80
2022-10-05T20:45:11.119Z,75.10
2022-10-05T20:47:40.416Z,75.30
2022-10-05T20:50:11.272Z,75.50
2022-10-05T20:52:41.442Z,75.50
2022-10-05T20:55:12.757Z,75.90
2022-10-05T20:57:42.406Z,76.00
2022-10-05T21:00:12.600Z,76.20
2022-10-05T21:02:40.911Z,77.80
2022-10-05T21:05:10.623Z,79.90
2022-10-05T21:07:40.929Z,81.60
2022-10-05T21:10:10.300Z,82.10
2022-10-05T21:12:38.535Z,82.50
2022-10-05T21:15:08.126Z,82.00
2022-10-05T21:17:36.411Z,82.50
2022-10-05T21:20:05.179Z,82.10
2022-10-05T21:22:35.594Z,82.50
2022-10-05T21:25:08.914Z,82.40
2022-10-05T21:27:37.200Z,82.20
2022-10-05T21:30:06.263Z,82.00
2022-10-05T21:32:34.623Z,81.70
2022-10-05T21:35:02.956Z,81.60
2022-10-05T21:37:31.217Z,80.80
2022-10-05T21:39:59.490Z,80.60
2022-10-05T21:42:29.240Z,80.50
2022-10-05T21:44:57.492Z,80.20
2022-10-05T21:47:26.765Z,80.50
2022-10-05T21:49:55.323Z,81.00
2022-10-05T21:52:24.039Z,80.60
2022-10-05T21:54:52.564Z,80.70
2022-10-05T21:57:20.881Z,80.40
2022-10-05T21:59:50.641Z,80.30
2022-10-05T22:02:18.864Z,80.60
2022-10-05T22:04:47.113Z,80.20
2022-10-05T22:07:19.087Z,80.40
2022-10-05T22:09:49.141Z,80.60
2022-10-05T22:12:19.784Z,80.50
2022-10-05T22:14:49.654Z,80.20
2022-10-05T22:17:24.409Z,80.70
2022-10-05T22:19:52.839Z,81.90
2022-10-05T22:22:21.688Z,84.50
2022-10-05T22:24:50.019Z,85.50
2022-10-05T22:27:18.500Z,85.20
2022-10-05T22:29:47.428Z,85.90
2022-10-05T22:32:17.073Z,86.00
2022-10-05T22:34:45.372Z,86.00
2022-10-05T22:37:15.394Z,85.80
2022-10-05T22:39:44.533Z,86.00
2022-10-05T22:42:12.774Z,85.70
2022-10-05T22:44:42.015Z,85.60
2022-10-05T22:47:10.229Z,85.60
2022-10-05T22:49:39.855Z,84.70
2022-10-05T22:52:08.104Z,84.50
2022-10-05T22:54:37.426Z,85.10
2022-10-05T22:57:05.890Z,84.80
2022-10-05T22:59:35.496Z,84.90
2022-10-05T23:02:03.829Z,84.70
2022-10-05T23:04:32.100Z,84.70
2022-10-05T23:07:01.681Z,83.80
2022-10-05T23:09:29.943Z,84.10
2022-10-05T23:11:58.207Z,84.00
2022-10-05T23:14:26.511Z,83.80
2022-10-05T23:16:54.785Z,83.80
2022-10-05T23:19:24.254Z,83.90
2022-10-05T23:21:52.521Z,83.60
2022-10-05T23:24:22.123Z,84.20
2022-10-05T23:26:50.356Z,84.00
2022-10-05T23:29:18.594Z,83.80
2022-10-05T23:31:46.828Z,84.00
2022-10-05T23:34:15.029Z,84.40
2022-10-05T23:36:43.282Z,84.60
2022-10-05T23:39:13.591Z,84.90
2022-10-05T23:41:44.405Z,84.90
2022-10-05T23:44:12.754Z,84.90
2022-10-05T23:46:41.016Z,84.70
2022-10-05T23:49:09.273Z,85.00
2022-10-05T23:51:37.512Z,85.10
2022-10-05T23:54:06.039Z,85.30
2022-10-05T23:56:34.319Z,85.50
2022-10-05T23:59:04.003Z,85.50
